Time;durP1;ratioP1;P1;durP2;ratioP2;P2;SDS_P1;SDS_P2;PMS_P1;PMS_P2;Temp;Humidity;BMP_temperature;BMP_pressure;BME280_temperature;BME280_humidity;BME280_pressure;Samples;Min_cycle;Max_cycle;Signal;HPM_P1;HPM_P2
2020/12/07 00:02:20;;;;;;;16.10;10.17;;;5.40;99.90;;;;;;5070338;28;20201;-80
2020/12/07 00:04:47;;;;;;;15.90;9.67;;;5.40;99.90;;;;;;5070582;28;20198;-81
2020/12/07 00:07:13;;;;;;;11.80;9.37;;;5.40;99.90;;;;;;5071000;28;20196;-85
2020/12/07 00:09:40;;;;;;;11.57;9.03;;;5.40;99.90;;;;;;5071078;28;20232;-80
2020/12/07 00:12:06;;;;;;;15.17;10.50;;;5.40;99.90;;;;;;5070071;28;20201;-82
2020/12/07 00:14:32;;;;;;;12.57;9.03;;;5.40;99.90;;;;;;5070135;28;20651;-82
2020/12/07 00:16:59;;;;;;;15.07;8.67;;;5.50;99.90;;;;;;5072148;28;20204;-84
2020/12/07 00:19:25;;;;;;;12.80;7.37;;;5.50;99.90;;;;;;5072222;28;20205;-86
2020/12/07 00:21:52;;;;;;;14.57;7.00;;;5.60;99.90;;;;;;5072424;28;20196;-85
2020/12/07 00:24:18;;;;;;;14.70;7.30;;;5.70;99.90;;;;;;5072430;28;20217;-86
2020/12/07 00:26:45;;;;;;;11.93;7.40;;;5.80;99.90;;;;;;5072847;28;20205;-88
2020/12/07 00:29:11;;;;;;;12.43;6.33;;;5.90;99.90;;;;;;5072665;28;20412;-87
2020/12/07 00:31:37;;;;;;;8.87;5.87;;;6.00;99.90;;;;;;5073140;28;20232;-89
2020/12/07 00:34:03;;;;;;;12.87;5.53;;;6.00;99.90;;;;;;5072843;28;20548;-88
2020/12/07 00:36:30;;;;;;;14.13;5.27;;;6.00;99.90;;;;;;5073026;28;20581;-90
2020/12/07 00:38:57;;;;;;;7.60;5.60;;;6.00;99.90;;;;;;5072683;28;20293;-86
2020/12/07 00:41:24;;;;;;;10.83;4.93;;;6.00;99.90;;;;;;5072426;28;20193;-88
2020/12/07 00:43:51;;;;;;;9.03;4.50;;;6.00;99.90;;;;;;5072296;28;20205;-88
2020/12/07 00:46:18;;;;;;;7.47;4.53;;;6.00;99.90;;;;;;5071932;28;20201;-85
2020/12/07 00:48:44;;;;;;;6.17;4.50;;;6.00;99.90;;;;;;5072769;28;20216;-88
2020/12/07 00:51:11;;;;;;;7.47;4.80;;;6.10;99.90;;;;;;5072228;28;20208;-86
2020/12/07 00:53:37;;;;;;;5.93;3.50;;;6.00;99.90;;;;;;5071863;28;20911;-88
2020/12/07 00:56:04;;;;;;;6.70;3.33;;;6.00;99.90;;;;;;5072245;28;20223;-88
2020/12/07 00:58:31;;;;;;;3.67;3.37;;;6.00;99.90;;;;;;5072338;28;20225;-86
2020/12/07 01:00:58;;;;;;;4.83;3.73;;;6.00;99.90;;;;;;5071756;28;20604;-89
2020/12/07 01:03:25;;;;;;;4.67;3.50;;;6.00;99.90;;;;;;5072151;28;20204;-87
2020/12/07 01:05:52;;;;;;;4.97;3.43;;;5.90;99.90;;;;;;5072307;28;20193;-88
2020/12/07 01:08:19;;;;;;;7.63;3.73;;;5.90;99.90;;;;;;5072066;28;20243;-87
2020/12/07 01:10:45;;;;;;;6.17;4.00;;;5.90;99.90;;;;;;5072441;28;20200;-87
2020/12/07 01:13:13;;;;;;;5.43;3.90;;;5.90;99.90;;;;;;5072029;28;20746;-90
2020/12/07 01:15:39;;;;;;;4.93;3.83;;;5.90;99.90;;;;;;5072680;28;20197;-87
2020/12/07 01:18:05;;;;;;;4.37;3.27;;;5.90;99.90;;;;;;5071875;28;20201;-86
2020/12/07 01:20:33;;;;;;;4.80;3.20;;;5.80;99.90;;;;;;5071427;28;20208;-87
2020/12/07 01:22:59;;;;;;;5.20;3.30;;;5.90;99.90;;;;;;5071784;28;20205;-88
2020/12/07 01:25:25;;;;;;;6.07;3.60;;;5.90;99.90;;;;;;5070449;28;20632;-87
2020/12/07 01:27:51;;;;;;;5.10;3.70;;;5.90;99.90;;;;;;5070549;28;20210;-88
2020/12/07 01:30:19;;;;;;;5.60;3.57;;;5.90;99.90;;;;;;5071320;28;20216;-88
2020/12/07 01:32:45;;;;;;;4.43;3.20;;;5.80;99.90;;;;;;5072745;28;20204;-87
2020/12/07 01:35:12;;;;;;;4.90;3.23;;;5.90;99.90;;;;;;5072732;28;20678;-88
2020/12/07 01:37:38;;;;;;;3.87;3.10;;;5.80;99.90;;;;;;5072028;28;20616;-89
2020/12/07 01:40:05;;;;;;;3.20;2.90;;;5.90;99.90;;;;;;5071288;28;20197;-88
2020/12/07 01:42:31;;;;;;;4.20;2.77;;;5.90;99.90;;;;;;5071381;28;20193;-89
2020/12/07 01:44:57;;;;;;;4.00;3.10;;;5.90;99.90;;;;;;5071178;28;20212;-89
2020/12/07 01:47:27;;;;;;;3.27;2.60;;;5.80;99.90;;;;;;5071110;28;20212;-87
2020/12/07 01:49:55;;;;;;;3.37;3.03;;;5.80;99.90;;;;;;5070954;28;20500;-88
2020/12/07 01:52:23;;;;;;;6.03;3.27;;;5.90;99.90;;;;;;5070903;28;20205;-87
2020/12/07 01:54:50;;;;;;;5.17;2.80;;;5.90;99.90;;;;;;5070795;28;20205;-88
2020/12/07 01:57:17;;;;;;;4.63;2.90;;;5.90;99.90;;;;;;5071410;28;20193;-87
2020/12/07 01:59:43;;;;;;;4.90;2.70;;;5.90;99.90;;;;;;5070246;28;20216;-87
2020/12/07 02:02:10;;;;;;;5.27;2.77;;;5.90;99.90;;;;;;5071221;28;20209;-89
2020/12/07 02:04:37;;;;;;;3.83;2.40;;;5.90;99.90;;;;;;5071579;28;20205;-89
2020/12/07 02:07:03;;;;;;;5.33;3.40;;;5.90;99.90;;;;;;5072023;28;20875;-88
2020/12/07 02:09:30;;;;;;;3.77;2.67;;;6.00;99.90;;;;;;5071655;28;20225;-88
2020/12/07 02:11:57;;;;;;;3.13;2.20;;;6.00;99.90;;;;;;5072012;28;20860;-89
2020/12/07 02:14:23;;;;;;;2.77;2.57;;;6.00;99.90;;;;;;5072027;28;20241;-89
2020/12/07 02:16:50;;;;;;;3.47;2.40;;;6.00;99.90;;;;;;5071317;28;20205;-89
2020/12/07 02:19:16;;;;;;;4.73;2.80;;;6.00;99.90;;;;;;5071760;28;20201;-89
2020/12/07 02:21:43;;;;;;;3.60;2.83;;;6.00;99.90;;;;;;5071787;28;20185;-91
2020/12/07 02:24:10;;;;;;;4.20;2.30;;;6.00;99.90;;;;;;5072263;28;20645;-91
2020/12/07 02:26:36;;;;;;;3.53;2.40;;;6.00;99.90;;;;;;5073350;28;20219;-90
2020/12/07 02:29:02;;;;;;;4.97;2.40;;;6.00;99.90;;;;;;5071787;28;20308;-89
2020/12/07 02:31:29;;;;;;;3.07;2.73;;;6.00;99.90;;;;;;5072015;28;20205;-88
2020/12/07 02:33:55;;;;;;;4.63;2.50;;;6.00;99.90;;;;;;5070659;28;20211;-88
2020/12/07 02:36:21;;;;;;;2.73;2.23;;;6.10;99.90;;;;;;5071150;28;20204;-88
2020/12/07 02:38:48;;;;;;;4.10;2.40;;;6.10;99.90;;;;;;5073882;28;20190;-87
2020/12/07 02:41:15;;;;;;;3.57;2.40;;;6.10;99.90;;;;;;5075268;28;20205;-88
2020/12/07 02:43:41;;;;;;;3.83;2.17;;;6.10;99.90;;;;;;5075347;28;20192;-88
2020/12/07 02:46:07;;;;;;;2.63;2.27;;;6.10;99.90;;;;;;5075475;28;20220;-86
2020/12/07 02:48:34;;;;;;;5.37;3.00;;;6.10;99.90;;;;;;5076263;28;20621;-88
2020/12/07 02:51:00;;;;;;;3.93;2.40;;;6.10;99.90;;;;;;5076038;28;20521;-89
2020/12/07 02:53:26;;;;;;;2.40;2.10;;;6.10;99.90;;;;;;5076346;28;20194;-89
2020/12/07 02:55:54;;;;;;;4.93;2.97;;;6.10;99.90;;;;;;5076676;28;20186;-89
2020/12/07 02:58:20;;;;;;;3.87;2.67;;;6.10;99.90;;;;;;5075078;28;20253;-87
2020/12/07 03:00:46;;;;;;;4.93;2.80;;;6.10;99.90;;;;;;5075537;28;20192;-89
2020/12/07 03:03:12;;;;;;;3.00;2.67;;;6.10;99.90;;;;;;5075011;28;20205;-88
2020/12/07 03:05:39;;;;;;;4.23;2.67;;;6.10;99.90;;;;;;5075032;28;20208;-88
2020/12/07 03:08:05;;;;;;;4.20;2.73;;;6.10;99.90;;;;;;5077839;28;20216;-88
2020/12/07 03:10:34;;;;;;;4.87;2.30;;;6.20;99.90;;;;;;5085686;28;20221;-91
2020/12/07 03:13:01;;;;;;;6.67;2.73;;;6.20;99.90;;;;;;5074632;28;20910;-89
2020/12/07 03:15:27;;;;;;;4.37;2.53;;;6.30;99.90;;;;;;5074639;28;20209;-91
2020/12/07 03:17:54;;;;;;;8.07;3.20;;;6.30;99.90;;;;;;5075212;28;20210;-90
2020/12/07 03:20:20;;;;;;;5.27;2.70;;;6.40;99.90;;;;;;5074492;28;20198;-92
2020/12/07 03:22:46;;;;;;;8.67;2.90;;;6.40;99.90;;;;;;5074836;28;20201;-92
2020/12/07 03:25:12;;;;;;;5.73;2.30;;;6.40;99.90;;;;;;5074540;28;20205;-92
2020/12/07 03:27:39;;;;;;;4.73;2.80;;;6.30;99.90;;;;;;5074634;28;20564;-93
2020/12/07 03:30:06;;;;;;;6.93;2.67;;;6.30;99.90;;;;;;5074540;28;20217;-93
2020/12/07 03:32:32;;;;;;;5.20;3.23;;;6.40;99.90;;;;;;5074132;28;20216;-93
2020/12/07 03:34:58;;;;;;;7.03;2.90;;;6.40;99.90;;;;;;5074150;28;20228;-92
2020/12/07 03:37:25;;;;;;;5.17;2.40;;;6.40;99.90;;;;;;5074899;28;20194;-92
2020/12/07 03:39:51;;;;;;;3.97;2.43;;;6.40;99.90;;;;;;5073543;28;20208;-93
2020/12/07 03:42:17;;;;;;;7.13;2.30;;;6.40;99.90;;;;;;5073422;28;20205;-94
2020/12/07 03:44:44;;;;;;;5.87;1.80;;;6.40;99.90;;;;;;5074744;28;20507;-93
2020/12/07 03:47:11;;;;;;;2.63;1.90;;;6.40;99.90;;;;;;5074059;28;20827;-94
2020/12/07 03:49:37;;;;;;;2.53;2.00;;;6.50;99.90;;;;;;5073464;28;20520;-94
2020/12/07 03:52:03;;;;;;;4.57;1.77;;;6.40;99.90;;;;;;5073961;28;20201;-94
2020/12/07 03:54:30;;;;;;;5.50;1.97;;;6.40;99.90;;;;;;5074105;28;20209;-92
2020/12/07 03:56:56;;;;;;;5.27;1.67;;;6.50;99.90;;;;;;5074088;28;20201;-89
2020/12/07 03:59:22;;;;;;;5.03;1.70;;;6.50;99.90;;;;;;5074094;28;20279;-91
2020/12/07 04:01:49;;;;;;;3.67;1.80;;;6.50;99.90;;;;;;5073528;28;20190;-90
2020/12/07 04:04:21;;;;;;;4.60;1.70;;;6.50;99.90;;;;;;5073476;28;20201;-89
2020/12/07 04:06:48;;;;;;;5.63;1.63;;;6.50;99.90;;;;;;5073229;28;20537;-91
2020/12/07 04:09:14;;;;;;;6.37;1.57;;;6.50;99.90;;;;;;5073183;28;20236;-91
2020/12/07 04:11:40;;;;;;;3.67;1.50;;;6.50;99.90;;;;;;5073957;28;20201;-92
2020/12/07 04:14:07;;;;;;;6.30;1.40;;;6.50;99.90;;;;;;5072384;28;20649;-92
2020/12/07 04:16:33;;;;;;;6.40;1.30;;;6.60;99.90;;;;;;5073346;28;20196;-92
2020/12/07 04:18:59;;;;;;;3.27;1.97;;;6.60;99.90;;;;;;5073599;28;20308;-91
2020/12/07 04:21:26;;;;;;;5.17;1.20;;;6.60;99.90;;;;;;5073495;28;20276;-90
2020/12/07 04:23:53;;;;;;;2.77;1.33;;;6.60;99.90;;;;;;5073048;28;20238;-91
2020/12/07 04:26:19;;;;;;;4.90;1.50;;;6.60;99.90;;;;;;5072966;28;20201;-91
2020/12/07 04:28:45;;;;;;;5.07;1.40;;;6.60;99.90;;;;;;5073272;28;20225;-91
2020/12/07 04:31:12;;;;;;;6.63;1.93;;;6.60;99.90;;;;;;5072848;28;20201;-92
2020/12/07 04:33:38;;;;;;;2.53;1.37;;;6.70;99.90;;;;;;5072988;28;20206;-92
2020/12/07 04:36:04;;;;;;;2.60;1.30;;;6.60;99.90;;;;;;5073160;28;20201;-90
2020/12/07 04:38:32;;;;;;;5.67;1.40;;;6.60;99.90;;;;;;5073068;28;20193;-90
2020/12/07 04:41:00;;;;;;;8.13;1.60;;;6.60;99.90;;;;;;5072895;28;20205;-92
2020/12/07 04:43:26;;;;;;;2.10;1.47;;;6.70;99.90;;;;;;5073220;28;20193;-93
2020/12/07 04:45:53;;;;;;;6.10;1.60;;;6.70;99.90;;;;;;5073671;28;20481;-94
2020/12/07 04:48:21;;;;;;;3.23;1.53;;;6.80;99.90;;;;;;5072107;28;20209;-93
2020/12/07 04:50:47;;;;;;;7.60;2.40;;;6.80;99.90;;;;;;5073530;28;20193;-92
2020/12/07 04:53:15;;;;;;;6.33;1.80;;;6.90;99.90;;;;;;5073635;28;20197;-92
2020/12/07 04:55:42;;;;;;;8.33;1.87;;;7.00;99.90;;;;;;5073754;28;20205;-95
2020/12/07 04:58:09;;;;;;;5.20;1.80;;;7.00;99.90;;;;;;5073674;28;20399;-96
2020/12/07 05:00:37;;;;;;;10.93;2.73;;;7.00;99.90;;;;;;5074569;28;20298;-96
2020/12/07 05:03:05;;;;;;;6.70;1.80;;;7.00;99.90;;;;;;5072786;28;20201;-96
2020/12/07 05:05:32;;;;;;;7.70;1.47;;;7.10;99.90;;;;;;5080468;22;20528;-93
2020/12/07 05:08:00;;;;;;;10.03;1.83;;;7.10;99.90;;;;;;5072578;28;20208;-95
2020/12/07 05:10:31;;;;;;;8.60;2.00;;;7.10;99.90;;;;;;5072544;28;20225;-94
2020/12/07 05:13:07;;;;;;;5.60;1.63;;;7.10;99.90;;;;;;5072861;28;20205;-90
2020/12/07 05:15:39;;;;;;;4.57;1.70;;;7.10;99.90;;;;;;5073563;28;20189;-95
2020/12/07 05:18:05;;;;;;;8.83;2.20;;;7.10;99.90;;;;;;5073502;28;20526;-94
2020/12/07 05:20:32;;;;;;;8.53;1.67;;;7.20;99.90;;;;;;5072733;28;20204;-94
2020/12/07 05:22:59;;;;;;;4.40;1.60;;;7.20;99.90;;;;;;5070804;28;20804;-95
2020/12/07 05:25:26;;;;;;;3.40;1.77;;;7.10;99.90;;;;;;5070717;28;20205;-94
2020/12/07 05:27:54;;;;;;;6.77;1.70;;;7.20;99.90;;;;;;5073365;28;20201;-95
2020/12/07 05:30:25;;;;;;;7.47;1.80;;;7.20;99.90;;;;;;5072838;28;20224;-94
2020/12/07 05:32:53;;;;;;;5.33;1.90;;;7.20;99.90;;;;;;5070966;28;20575;-94
2020/12/07 05:35:19;;;;;;;6.00;1.67;;;7.20;99.90;;;;;;5071910;28;20205;-94
2020/12/07 05:37:46;;;;;;;8.43;1.87;;;7.20;99.90;;;;;;5072410;28;20205;-93
2020/12/07 05:40:14;;;;;;;6.33;1.53;;;7.20;99.90;;;;;;5070780;28;20567;-94
2020/12/07 05:42:40;;;;;;;4.50;1.27;;;7.20;99.90;;;;;;5072067;28;20213;-92
2020/12/07 05:45:08;;;;;;;6.80;1.93;;;7.10;99.90;;;;;;5070549;28;20198;-92
2020/12/07 05:47:38;;;;;;;6.17;1.70;;;7.20;99.90;;;;;;5066726;28;20194;-93
2020/12/07 05:50:06;;;;;;;3.40;1.60;;;7.20;99.90;;;;;;5066477;28;20259;-95
2020/12/07 05:52:45;;;;;;;5.90;1.67;;;7.20;99.90;;;;;;5065758;28;20205;-93
2020/12/07 05:55:12;;;;;;;6.07;1.80;;;7.20;99.90;;;;;;5065926;28;20220;-93
2020/12/07 05:57:47;;;;;;;10.43;1.97;;;7.30;99.90;;;;;;5069573;28;20524;-94
2020/12/07 06:00:20;;;;;;;7.13;2.37;;;7.20;99.90;;;;;;5069653;28;20253;-93
2020/12/07 06:02:50;;;;;;;6.97;2.00;;;7.30;99.90;;;;;;5068070;28;20199;-92
2020/12/07 06:05:17;;;;;;;11.73;2.30;;;7.30;99.90;;;;;;5066312;28;20264;-93
2020/12/07 06:07:47;;;;;;;6.57;2.27;;;7.30;99.90;;;;;;5066132;28;20189;-92
2020/12/07 06:10:16;;;;;;;6.07;1.77;;;7.30;99.90;;;;;;5068732;28;20229;-94
2020/12/07 06:12:48;;;;;;;6.20;2.07;;;7.30;99.90;;;;;;5072504;28;20208;-91
2020/12/07 06:15:18;;;;;;;8.73;2.33;;;7.30;99.90;;;;;;5072332;28;20590;-93
2020/12/07 06:17:47;;;;;;;6.50;2.10;;;7.30;99.90;;;;;;5072926;28;20831;-92
2020/12/07 06:20:27;;;;;;;4.90;1.70;;;7.30;99.90;;;;;;5072501;28;20201;-89
2020/12/07 06:22:55;;;;;;;6.33;2.03;;;7.30;99.90;;;;;;5071848;28;20255;-91
2020/12/07 06:25:22;;;;;;;4.63;1.70;;;7.30;99.90;;;;;;5072195;28;20200;-93
2020/12/07 06:27:48;;;;;;;5.10;1.77;;;7.30;99.90;;;;;;5072093;28;20512;-90
2020/12/07 06:30:18;;;;;;;4.03;1.77;;;7.30;99.90;;;;;;5068973;28;20234;-90
2020/12/07 06:32:46;;;;;;;5.20;1.90;;;7.40;99.90;;;;;;5078216;28;20189;-93
2020/12/07 06:35:12;;;;;;;7.33;2.03;;;7.40;99.90;;;;;;5073540;28;20201;-90
2020/12/07 06:37:45;;;;;;;5.70;1.70;;;7.40;99.90;;;;;;5070838;28;20201;-86
2020/12/07 06:40:13;;;;;;;5.70;1.50;;;7.30;99.90;;;;;;5070748;28;20201;-93
2020/12/07 06:42:40;;;;;;;5.57;1.77;;;7.40;99.90;;;;;;5070759;28;20208;-87
2020/12/07 06:45:09;;;;;;;3.47;2.03;;;7.30;99.90;;;;;;5069973;28;20204;-90
2020/12/07 06:47:40;;;;;;;10.83;2.23;;;7.40;99.90;;;;;;5070237;28;20209;-90
2020/12/07 06:50:15;;;;;;;9.43;1.60;;;7.40;99.90;;;;;;5069962;28;20221;-85
2020/12/07 06:52:44;;;;;;;2.60;1.23;;;7.30;99.90;;;;;;5070678;28;20585;-85
2020/12/07 06:55:12;;;;;;;5.40;1.47;;;7.40;99.90;;;;;;5070370;28;20217;-90
2020/12/07 06:57:41;;;;;;;4.93;1.47;;;7.30;99.90;;;;;;5069736;28;20252;-90
2020/12/07 07:00:11;;;;;;;4.33;1.73;;;7.30;99.90;;;;;;5070398;28;20194;-92
2020/12/07 07:02:38;;;;;;;5.93;1.30;;;7.30;99.90;;;;;;5069595;28;20590;-91
2020/12/07 07:05:05;;;;;;;4.07;1.63;;;7.30;99.90;;;;;;5069810;28;20197;-91
2020/12/07 07:07:32;;;;;;;3.27;1.80;;;7.30;99.90;;;;;;5070741;28;20205;-92
2020/12/07 07:09:59;;;;;;;6.03;1.63;;;7.30;99.90;;;;;;5070206;28;20252;-93
2020/12/07 07:12:27;;;;;;;3.63;1.80;;;7.30;99.90;;;;;;5071254;28;20204;-92
2020/12/07 07:14:53;;;;;;;4.03;1.60;;;7.30;99.90;;;;;;5071009;28;20200;-94
2020/12/07 07:17:21;;;;;;;4.00;2.00;;;7.30;99.90;;;;;;5070364;28;20235;-96
2020/12/07 07:19:47;;;;;;;7.70;2.83;;;7.30;99.90;;;;;;5071348;28;20748;-95
2020/12/07 07:22:14;;;;;;;8.33;2.33;;;7.40;99.90;;;;;;5071075;28;20197;-92
2020/12/07 07:24:57;;;;;;;9.97;2.37;;;7.30;99.90;;;;;;5071548;28;20216;-96
2020/12/07 07:30:12;;;;;;;1.30;1.20;;;7.40;99.90;;;;;;5054210;28;20663;-94
2020/12/07 07:32:40;;;;;;;6.70;1.40;;;7.40;99.90;;;;;;5054595;28;20210;-92
2020/12/07 07:35:07;;;;;;;4.03;1.63;;;7.40;99.90;;;;;;5054500;28;20572;-91
2020/12/07 07:37:33;;;;;;;3.77;1.60;;;7.40;99.90;;;;;;5055663;28;20204;-91
2020/12/07 07:40:01;;;;;;;7.63;1.93;;;7.50;99.90;;;;;;5055052;28;20194;-89
2020/12/07 07:42:30;;;;;;;3.63;1.73;;;7.50;99.90;;;;;;5055651;28;20275;-91
2020/12/07 07:44:57;;;;;;;6.23;1.93;;;7.50;99.90;;;;;;5054911;28;20273;-88
2020/12/07 07:47:29;;;;;;;7.60;2.10;;;7.50;99.90;;;;;;5053890;28;20206;-87
2020/12/07 07:53:21;;;;;;;6.37;2.43;;;7.50;99.90;;;;;;5054802;28;20746;-91
2020/12/07 08:15:47;;;;;;;3.90;2.13;;;7.50;99.90;;;;;;5054559;28;20182;-94
2020/12/07 08:18:18;;;;;;;6.43;1.80;;;7.50;99.90;;;;;;5065571;28;20271;-91
2020/12/07 08:20:52;;;;;;;5.53;1.87;;;7.50;99.90;;;;;;5062617;28;20703;-92
2020/12/07 08:23:26;;;;;;;9.53;2.70;;;7.40;99.90;;;;;;5063113;28;20209;-94
2020/12/07 08:25:53;;;;;;;14.83;3.50;;;7.50;99.90;;;;;;5065102;28;20205;-93
2020/12/07 08:28:26;;;;;;;7.23;3.10;;;7.50;99.90;;;;;;5073024;28;20193;-96
2020/12/07 08:31:07;;;;;;;7.53;2.40;;;7.50;99.90;;;;;;5073783;28;20316;-96
2020/12/07 08:33:35;;;;;;;11.63;3.57;;;7.60;99.90;;;;;;5073537;28;20189;-94
2020/12/07 08:56:10;;;;;;;4.80;1.43;;;7.40;99.90;;;;;;5799198;22;20243;-96
2020/12/07 08:58:37;;;;;;;4.37;2.00;;;7.40;99.90;;;;;;5094433;28;20196;-96
2020/12/07 09:01:05;;;;;;;8.13;1.70;;;7.40;99.90;;;;;;5095007;28;20510;-96
2020/12/07 09:03:32;;;;;;;6.10;1.70;;;7.40;99.90;;;;;;5096342;28;20221;-94
2020/12/07 09:06:00;;;;;;;5.53;1.90;;;7.40;99.90;;;;;;5094189;28;20299;-96
2020/12/07 09:08:26;;;;;;;7.07;2.17;;;7.40;99.90;;;;;;5092971;28;20223;-92
2020/12/07 09:10:53;;;;;;;4.87;2.00;;;7.40;99.90;;;;;;5092998;28;20220;-96
2020/12/07 09:13:20;;;;;;;5.10;1.60;;;7.40;99.90;;;;;;5093527;28;20819;-95
2020/12/07 09:15:47;;;;;;;6.37;1.97;;;7.40;99.90;;;;;;5095837;28;20205;-93
2020/12/07 09:18:13;;;;;;;4.53;1.40;;;7.40;99.90;;;;;;5094749;28;20200;-96
2020/12/07 09:20:39;;;;;;;4.83;1.60;;;7.40;99.90;;;;;;5093418;28;20256;-96
2020/12/07 09:23:06;;;;;;;6.83;1.83;;;7.30;99.90;;;;;;5093947;28;20204;-95
2020/12/07 09:25:34;;;;;;;3.07;1.47;;;7.40;99.90;;;;;;5092174;28;20204;-95
2020/12/07 09:28:01;;;;;;;5.03;1.60;;;7.40;99.90;;;;;;5093579;28;20448;-96
2020/12/07 09:30:28;;;;;;;2.60;1.23;;;7.30;99.90;;;;;;5096780;28;20220;-96
2020/12/07 09:32:54;;;;;;;3.23;1.30;;;7.30;99.90;;;;;;5095762;28;20212;-95
2020/12/07 09:35:21;;;;;;;5.23;1.60;;;7.40;99.90;;;;;;5095244;28;20209;-95
2020/12/07 09:37:47;;;;;;;3.73;1.50;;;7.40;99.90;;;;;;5092707;28;20212;-96
2020/12/07 09:40:17;;;;;;;3.63;1.47;;;7.40;99.90;;;;;;5095681;28;20511;-96
2020/12/07 09:42:44;;;;;;;6.17;1.63;;;7.40;99.90;;;;;;5097482;28;20203;-96
2020/12/07 09:45:13;;;;;;;3.60;1.60;;;7.40;99.90;;;;;;5093880;28;20904;-96
2020/12/07 09:47:43;;;;;;;5.40;1.50;;;7.40;99.90;;;;;;5094226;28;20200;-95
2020/12/07 09:50:11;;;;;;;3.37;1.47;;;7.40;99.90;;;;;;5093756;28;20303;-96
2020/12/07 09:52:38;;;;;;;5.20;1.60;;;7.40;99.90;;;;;;5093371;28;20205;-96
2020/12/07 09:55:07;;;;;;;4.33;1.30;;;7.40;99.90;;;;;;5092436;28;20917;-92
2020/12/07 09:57:34;;;;;;;6.30;1.07;;;7.40;99.90;;;;;;5093704;28;20616;-95
2020/12/07 10:00:00;;;;;;;4.90;1.13;;;7.30;99.90;;;;;;5091883;28;20577;-92
2020/12/07 10:02:26;;;;;;;4.47;1.00;;;7.30;99.90;;;;;;5091984;28;20196;-93
2020/12/07 10:04:54;;;;;;;6.63;1.53;;;7.30;99.90;;;;;;5091434;28;20238;-93
2020/12/07 10:07:20;;;;;;;4.57;1.33;;;7.40;99.90;;;;;;5092539;28;20204;-96
2020/12/07 10:09:47;;;;;;;4.73;1.20;;;7.30;99.90;;;;;;5091591;28;20235;-92
2020/12/07 10:12:13;;;;;;;2.90;1.00;;;7.30;99.90;;;;;;5092609;28;20220;-89
2020/12/07 10:14:40;;;;;;;5.67;1.13;;;7.30;99.90;;;;;;5093450;28;20228;-92
2020/12/07 10:17:07;;;;;;;2.13;1.00;;;7.30;99.90;;;;;;5092617;28;20201;-93
2020/12/07 10:19:33;;;;;;;1.63;1.13;;;7.30;99.90;;;;;;5092753;28;20205;-93
2020/12/07 10:22:03;;;;;;;3.90;1.10;;;7.30;99.90;;;;;;5092272;28;20208;-92
2020/12/07 10:24:30;;;;;;;1.80;1.13;;;7.30;99.90;;;;;;5092500;28;20200;-93
2020/12/07 10:26:57;;;;;;;4.13;1.53;;;7.40;99.90;;;;;;5091842;28;20308;-92
2020/12/07 10:29:23;;;;;;;3.40;1.50;;;7.50;99.90;;;;;;5091439;28;20216;-92
2020/12/07 10:31:50;;;;;;;6.07;1.77;;;7.50;99.90;;;;;;5091390;28;20189;-92
2020/12/07 10:34:16;;;;;;;6.63;1.50;;;7.50;99.90;;;;;;5091841;28;20203;-93
2020/12/07 10:36:45;;;;;;;2.97;1.23;;;7.60;99.90;;;;;;5091463;28;20276;-93
2020/12/07 10:39:12;;;;;;;3.43;1.60;;;7.60;99.90;;;;;;5090393;28;20197;-93
2020/12/07 10:41:39;;;;;;;5.53;2.03;;;7.60;99.90;;;;;;5091558;28;20185;-94
2020/12/07 10:44:05;;;;;;;4.97;2.00;;;7.60;99.90;;;;;;5090795;28;20280;-96
2020/12/07 10:46:37;;;;;;;6.67;1.70;;;7.70;99.90;;;;;;5091722;28;20224;-91
2020/12/07 10:49:04;;;;;;;3.53;2.10;;;7.70;99.90;;;;;;5090996;28;20216;-95
2020/12/07 10:51:30;;;;;;;3.50;1.60;;;7.80;99.90;;;;;;5091503;28;20200;-95
2020/12/07 10:53:57;;;;;;;4.43;1.70;;;7.80;99.90;;;;;;5094040;28;20209;-96
2020/12/07 10:56:24;;;;;;;4.43;1.67;;;7.90;99.90;;;;;;5095610;28;20237;-95
2020/12/07 10:58:51;;;;;;;4.63;1.97;;;7.90;99.90;;;;;;5093354;28;20189;-96
2020/12/07 11:01:17;;;;;;;3.23;2.10;;;7.90;99.90;;;;;;5096085;28;20938;-96
2020/12/07 11:03:45;;;;;;;8.93;2.23;;;7.90;99.90;;;;;;5096641;28;20903;-96
2020/12/07 11:06:14;;;;;;;2.97;2.30;;;8.00;99.90;;;;;;5096385;28;20204;-96
2020/12/07 11:08:49;;;;;;;6.40;2.63;;;8.00;99.90;;;;;;5096864;28;20593;-96
2020/12/07 11:11:15;;;;;;;5.47;2.33;;;8.00;99.90;;;;;;5096480;28;20316;-94
2020/12/07 11:13:44;;;;;;;5.67;2.87;;;8.10;99.90;;;;;;5097338;28;20205;-94
2020/12/07 11:16:14;;;;;;;7.23;3.20;;;8.00;99.90;;;;;;5096861;28;20203;-96
2020/12/07 11:18:40;;;;;;;6.43;2.53;;;8.00;99.90;;;;;;5097254;28;20204;-92
2020/12/07 11:21:14;;;;;;;6.97;2.90;;;8.10;99.90;;;;;;5101927;28;20335;-96
2020/12/07 11:23:42;;;;;;;6.27;3.10;;;8.10;99.90;;;;;;5099017;28;20734;-93
2020/12/07 11:26:09;;;;;;;5.53;3.77;;;8.10;99.90;;;;;;5090328;28;20287;-96
2020/12/07 11:28:35;;;;;;;4.80;2.87;;;8.10;99.90;;;;;;5093463;28;20619;-94
2020/12/07 11:31:02;;;;;;;9.30;4.83;;;8.10;99.90;;;;;;5094042;28;20308;-93
2020/12/07 11:33:30;;;;;;;6.50;3.47;;;8.10;99.90;;;;;;5092909;28;20208;-96
2020/12/07 11:35:57;;;;;;;7.80;3.63;;;8.10;99.90;;;;;;5093741;28;20951;-96
2020/12/07 11:38:26;;;;;;;8.97;3.77;;;8.00;99.90;;;;;;5093176;28;20516;-96
2020/12/07 11:41:09;;;;;;;5.17;3.23;;;8.00;99.90;;;;;;5093470;28;20919;-94
2020/12/07 11:43:42;;;;;;;7.57;3.87;;;8.00;99.90;;;;;;5091646;28;20581;-95
2020/12/07 11:46:16;;;;;;;13.50;4.90;;;8.00;99.90;;;;;;5092927;28;20215;-96
2020/12/07 11:48:42;;;;;;;10.03;4.80;;;8.00;99.90;;;;;;5090107;28;20291;-93
2020/12/07 11:51:10;;;;;;;9.33;4.40;;;8.00;99.90;;;;;;5092347;28;20235;-96
2020/12/07 11:53:42;;;;;;;9.30;3.50;;;8.00;99.90;;;;;;5093052;28;20331;-95
2020/12/07 11:56:10;;;;;;;5.57;2.90;;;8.10;99.90;;;;;;5092815;28;20272;-93
2020/12/07 11:58:36;;;;;;;7.40;2.50;;;8.20;99.90;;;;;;5091633;28;20205;-94
2020/12/07 12:01:04;;;;;;;9.60;3.40;;;8.20;99.90;;;;;;5090778;28;20207;-90
2020/12/07 12:03:32;;;;;;;4.67;2.67;;;8.20;99.90;;;;;;5086185;28;20204;-89
2020/12/07 12:05:58;;;;;;;7.63;3.00;;;8.20;99.90;;;;;;5084293;28;20192;-91
2020/12/07 12:08:25;;;;;;;7.83;2.73;;;8.20;99.90;;;;;;5085319;28;20291;-88
2020/12/07 12:10:51;;;;;;;13.57;2.73;;;8.20;99.90;;;;;;5085385;28;20221;-81
2020/12/07 12:13:17;;;;;;;3.93;2.33;;;8.20;99.90;;;;;;5085544;28;20204;-81
2020/12/07 12:15:44;;;;;;;6.87;3.63;;;8.30;99.90;;;;;;5085542;28;20209;-81
2020/12/07 12:18:13;;;;;;;5.00;1.93;;;8.30;99.90;;;;;;5084068;28;20239;-80
2020/12/07 12:20:42;;;;;;;8.93;2.23;;;8.30;99.90;;;;;;5080576;28;20223;-81
2020/12/07 12:23:10;;;;;;;6.10;2.10;;;8.30;99.90;;;;;;5084565;28;20204;-82
2020/12/07 12:25:40;;;;;;;4.93;2.53;;;8.40;99.90;;;;;;5089038;28;20196;-93
2020/12/07 12:28:17;;;;;;;7.20;3.27;;;8.50;99.90;;;;;;5092431;28;20212;-86
2020/12/07 12:30:43;;;;;;;6.53;2.83;;;8.50;99.90;;;;;;5088827;28;20226;-84
2020/12/07 12:33:09;;;;;;;3.20;1.80;;;8.40;99.90;;;;;;5088754;28;20199;-83
2020/12/07 12:35:36;;;;;;;5.53;2.30;;;8.40;99.90;;;;;;5088093;28;20196;-81
2020/12/07 12:38:03;;;;;;;5.43;2.23;;;8.50;99.90;;;;;;5089928;28;20204;-86
2020/12/07 12:40:30;;;;;;;4.87;1.70;;;8.50;99.90;;;;;;5087616;28;20597;-79
2020/12/07 12:42:56;;;;;;;6.97;2.37;;;8.50;99.90;;;;;;5086243;28;20216;-84
2020/12/07 12:45:22;;;;;;;10.43;2.87;;;8.50;99.90;;;;;;5086470;28;20216;-91
2020/12/07 12:47:48;;;;;;;8.23;3.03;;;8.60;99.90;;;;;;5075696;28;20620;-81
2020/12/07 12:50:15;;;;;;;7.47;2.70;;;8.60;99.90;;;;;;5089475;28;20322;-84
2020/12/07 12:52:43;;;;;;;6.70;3.23;;;8.60;99.90;;;;;;5094495;28;20225;-90
2020/12/07 12:55:12;;;;;;;6.80;2.73;;;8.50;99.90;;;;;;5091477;28;20672;-92
2020/12/07 12:57:38;;;;;;;4.93;2.27;;;8.50;99.90;;;;;;5091360;28;20215;-92
2020/12/07 13:00:05;;;;;;;8.63;2.73;;;8.50;99.90;;;;;;5091771;28;20204;-91
2020/12/07 13:02:38;;;;;;;5.47;2.43;;;8.50;99.90;;;;;;5086311;28;20201;-93
2020/12/07 13:05:04;;;;;;;2.90;2.00;;;8.50;99.90;;;;;;5076894;28;20216;-91
2020/12/07 13:07:30;;;;;;;5.90;2.37;;;8.50;99.90;;;;;;5091502;28;20209;-91
2020/12/07 13:09:57;;;;;;;4.80;1.70;;;8.50;99.90;;;;;;5091187;28;20624;-92
2020/12/07 13:12:24;;;;;;;9.53;1.83;;;8.50;99.90;;;;;;5093449;28;20207;-84
2020/12/07 13:14:50;;;;;;;4.83;1.70;;;8.40;99.90;;;;;;5073331;28;20608;-94
2020/12/07 13:17:18;;;;;;;5.27;1.90;;;8.30;99.90;;;;;;5077668;28;20213;-93
2020/12/07 13:19:46;;;;;;;3.80;2.03;;;8.30;99.90;;;;;;5091067;28;20969;-94
2020/12/07 13:22:17;;;;;;;3.23;1.73;;;8.20;99.90;;;;;;5090101;28;20200;-89
2020/12/07 13:24:49;;;;;;;4.30;2.20;;;8.10;99.90;;;;;;5090794;28;20236;-86
2020/12/07 13:27:25;;;;;;;2.57;1.47;;;8.00;99.90;;;;;;5090982;28;20216;-91
2020/12/07 13:29:52;;;;;;;5.43;2.57;;;8.00;99.90;;;;;;5090820;28;20224;-93
2020/12/07 13:32:18;;;;;;;2.43;1.10;;;7.90;99.90;;;;;;5090394;28;20857;-85
2020/12/07 13:34:45;;;;;;;2.97;0.87;;;7.90;99.90;;;;;;5091182;28;20226;-88
2020/12/07 13:37:11;;;;;;;3.53;1.00;;;7.80;99.90;;;;;;5090342;28;20238;-86
2020/12/07 13:39:38;;;;;;;4.07;1.20;;;7.80;99.90;;;;;;5090753;28;20493;-86
2020/12/07 13:42:04;;;;;;;5.00;1.70;;;7.70;99.90;;;;;;5089869;28;20208;-88
2020/12/07 13:44:31;;;;;;;2.00;1.13;;;7.70;99.90;;;;;;5091758;28;20201;-92